Terminal Aerodrome Forecast
Issued by NWS

Home | Current Version | Previous Version | Text Only | Print | Product List | Glossary On
Versions: 1 2 3 4 5 6 7 8 9 10 11 12 13 14
000
FTAK31 PANC 221942 AAA
TAFAVD
TAF AMD
PAVD 221942Z 2220/2318 25008KT P6SM VCSH BKN050
     FM230500 VRB05KT P6SM SCT040 BKN070
     FM231000 VRB03KT P6SM VCFG SCT005
      AMD LTD TO CLD VIS AND WIND=

USA.gov is the U.S. government's official web portal to all federal, state and local government web resources and services.